createdAt,value
2022-09-17T05:36:26.414Z,98549.22
2022-09-17T05:39:40.056Z,98549.00
2022-09-17T05:42:50.236Z,98548.53
2022-09-17T05:46:02.520Z,98550.31
2022-09-17T05:49:12.036Z,98556.13
2022-09-17T05:52:22.795Z,98566.84
2022-09-17T05:55:32.507Z,98563.72
2022-09-17T05:58:42.031Z,98570.63
2022-09-17T06:01:53.734Z,98579.44
2022-09-17T06:05:03.861Z,98578.22
2022-09-17T06:08:14.577Z,98570.31
2022-09-17T06:11:24.196Z,98573.13
2022-09-17T06:14:33.778Z,98575.56
2022-09-17T06:17:43.421Z,98584.94
2022-09-17T06:20:55.819Z,98585.78
2022-09-17T06:24:06.630Z,98590.00
2022-09-17T06:27:18.852Z,98586.41
2022-09-17T06:30:28.483Z,98585.97
2022-09-17T06:33:37.993Z,98589.09
2022-09-17T06:36:49.211Z,98589.09
2022-09-17T06:40:00.905Z,98581.91
2022-09-17T06:43:10.503Z,98580.34
2022-09-17T06:46:22.486Z,98578.34
2022-09-17T06:49:32.033Z,98585.69
2022-09-17T06:52:48.843Z,98581.75
2022-09-17T06:56:05.870Z,98583.84
2022-09-17T06:59:16.106Z,98581.56
2022-09-17T07:02:25.814Z,98581.31
2022-09-17T07:05:35.314Z,98585.25
2022-09-17T07:08:44.930Z,98581.38
2022-09-17T07:11:58.490Z,98581.59
2022-09-17T07:15:10.472Z,98580.16
2022-09-17T07:18:20.023Z,98586.84
2022-09-17T07:21:29.646Z,98591.31
2022-09-17T07:24:39.141Z,98588.75
2022-09-17T07:27:49.832Z,98589.94
2022-09-17T07:30:59.372Z,98592.91
2022-09-17T07:34:08.994Z,98593.69
2022-09-17T07:37:20.256Z,98593.38
2022-09-17T07:40:29.890Z,98573.84
2022-09-17T07:43:52.817Z,98574.78
2022-09-17T07:47:03.692Z,98591.25
2022-09-17T07:50:13.221Z,98590.91
2022-09-17T07:53:23.743Z,98589.41
2022-09-17T07:56:33.317Z,98593.59
2022-09-17T07:59:42.774Z,98595.72
2022-09-17T08:02:55.746Z,98593.53
2022-09-17T08:06:06.723Z,98587.06
2022-09-17T08:09:18.478Z,98597.09
2022-09-17T08:12:28.025Z,98590.28
2022-09-17T08:15:37.503Z,98593.53
2022-09-17T08:18:49.548Z,98586.66
2022-09-17T08:21:59.227Z,98593.16
2022-09-17T08:25:10.645Z,98595.50
2022-09-17T08:28:20.177Z,98600.50
2022-09-17T08:31:30.624Z,98591.50
2022-09-17T08:34:41.462Z,98595.44
2022-09-17T08:37:51.953Z,98590.75
2022-09-17T08:41:12.581Z,98595.44
2022-09-17T08:44:26.807Z,98601.44
2022-09-17T08:47:40.849Z,98598.50
2022-09-17T08:50:51.980Z,98600.41
2022-09-17T08:54:08.794Z,98598.56
2022-09-17T08:57:35.374Z,98587.19
2022-09-17T09:01:04.874Z,98594.19
2022-09-17T09:04:34.969Z,98595.88
2022-09-17T09:07:51.656Z,98588.69
2022-09-17T09:11:03.805Z,98587.31
2022-09-17T09:14:20.991Z,98588.63
2022-09-17T09:17:35.976Z,98576.38
2022-09-17T09:20:51.632Z,98580.47
2022-09-17T09:24:11.522Z,98592.94
2022-09-17T09:27:28.269Z,98592.72
2022-09-17T09:30:53.447Z,98594.34
2022-09-17T09:34:04.574Z,98596.53
2022-09-17T09:37:20.955Z,98604.31
2022-09-17T09:40:37.886Z,98600.50
2022-09-17T09:44:05.377Z,98608.09
2022-09-17T09:47:33.488Z,98601.28
2022-09-17T09:51:07.049Z,98603.34
2022-09-17T09:54:32.116Z,98597.47
2022-09-17T09:57:45.462Z,98602.03
2022-09-17T10:00:54.987Z,98591.66
2022-09-17T10:04:17.995Z,98601.59
2022-09-17T10:07:27.526Z,98609.72
2022-09-17T10:10:38.589Z,98629.53
2022-09-17T10:13:49.979Z,98620.53
2022-09-17T10:17:16.352Z,98629.13
2022-09-17T10:20:26.061Z,98623.94
2022-09-17T10:23:39.375Z,98621.13
2022-09-17T10:26:49.136Z,98622.97
2022-09-17T10:30:14.812Z,98630.44
2022-09-17T10:33:27.510Z,98626.03
2022-09-17T10:36:41.267Z,98626.03
2022-09-17T10:39:50.848Z,98635.09
2022-09-17T10:43:19.317Z,98628.31
2022-09-17T10:46:33.809Z,98624.75
2022-09-17T10:49:47.636Z,98627.47
2022-09-17T10:53:01.143Z,98625.56
2022-09-17T10:56:20.981Z,98622.44
2022-09-17T10:59:54.118Z,98624.06
2022-09-17T11:03:25.309Z,98621.34
2022-09-17T11:06:59.592Z,98605.28
2022-09-17T11:10:14.645Z,98606.44
2022-09-17T11:13:33.863Z,98602.91
2022-09-17T11:16:52.933Z,98602.00
2022-09-17T11:20:21.244Z,98600.38
2022-09-17T11:23:52.779Z,98586.97
2022-09-17T11:27:14.602Z,98583.22
2022-09-17T11:30:27.100Z,98588.06
2022-09-17T11:33:57.476Z,98571.75
2022-09-17T11:37:14.343Z,98567.84
2022-09-17T11:40:39.380Z,98565.22
2022-09-17T11:44:08.627Z,98568.06
2022-09-17T11:47:25.417Z,98560.41
2022-09-17T11:50:41.809Z,98564.78
2022-09-17T11:53:58.214Z,98562.13
2022-09-17T11:57:15.001Z,98564.00
2022-09-17T12:00:24.777Z,98554.31
2022-09-17T12:03:42.171Z,98550.06
2022-09-17T12:07:01.082Z,98541.72
2022-09-17T12:10:27.062Z,98544.03
2022-09-17T12:13:41.623Z,98536.84
2022-09-17T12:16:58.576Z,98536.69
2022-09-17T12:20:23.791Z,98535.09
2022-09-17T12:23:39.926Z,98538.69
2022-09-17T12:26:59.829Z,98534.13
2022-09-17T12:30:14.154Z,98536.00
2022-09-17T12:33:33.986Z,98534.41
2022-09-17T12:36:52.984Z,98527.56
2022-09-17T12:40:15.160Z,98525.22
2022-09-17T12:43:43.387Z,98512.75
2022-09-17T12:47:08.889Z,98525.06
2022-09-17T12:50:25.479Z,98524.38
2022-09-17T12:53:41.072Z,98538.53
2022-09-17T12:56:59.506Z,98540.03
2022-09-17T13:00:13.737Z,98534.25
2022-09-17T13:03:28.516Z,98532.03
2022-09-17T13:06:59.730Z,98535.25
2022-09-17T13:10:34.046Z,98555.50
2022-09-17T13:13:51.164Z,98549.25
2022-09-17T13:17:06.177Z,98539.75
2022-09-17T13:20:22.590Z,98542.53
2022-09-17T13:23:40.267Z,98524.78
2022-09-17T13:26:50.279Z,98524.13
2022-09-17T13:30:02.168Z,98526.84
2022-09-17T13:33:13.372Z,98526.63
2022-09-17T13:36:38.032Z,98528.66
2022-09-17T13:39:49.862Z,98530.31
2022-09-17T13:43:08.320Z,98523.88
2022-09-17T13:46:24.001Z,98525.25
2022-09-17T13:49:34.899Z,98516.09
2022-09-17T13:52:47.814Z,98509.88
2022-09-17T13:56:00.975Z,98512.69
2022-09-17T13:59:21.457Z,98496.00
2022-09-17T14:02:35.127Z,98506.72
2022-09-17T14:05:46.060Z,98508.38
2022-09-17T14:08:57.712Z,98515.75
2022-09-17T14:12:34.224Z,98520.38
2022-09-17T14:16:01.088Z,98542.75
2022-09-17T14:19:25.107Z,98556.00
2022-09-17T14:22:36.010Z,98578.84
2022-09-17T14:25:50.800Z,98575.09
2022-09-17T14:29:06.923Z,98558.81
2022-09-17T14:32:21.198Z,98558.91
2022-09-17T14:35:37.546Z,98557.03
2022-09-17T14:38:52.523Z,98550.69
2022-09-17T14:42:06.363Z,98553.88
2022-09-17T14:45:20.672Z,98562.28
2022-09-17T14:48:32.895Z,98557.59
2022-09-17T14:51:50.073Z,98546.44
2022-09-17T14:55:16.419Z,98546.91
2022-09-17T14:58:34.737Z,98554.25
2022-09-17T15:01:48.703Z,98543.47
2022-09-17T15:04:58.919Z,98547.09
2022-09-17T15:08:15.504Z,98549.38
2022-09-17T15:11:26.453Z,98549.84
2022-09-17T15:14:40.262Z,98541.94
2022-09-17T15:17:51.115Z,98544.16
2022-09-17T15:21:04.193Z,98543.94
2022-09-17T15:24:22.423Z,98546.66
2022-09-17T15:27:36.531Z,98550.16
2022-09-17T15:30:46.789Z,98553.03
2022-09-17T15:33:59.592Z,98557.28
2022-09-17T15:37:20.220Z,98563.44
2022-09-17T15:40:32.735Z,98570.22
2022-09-17T15:43:45.946Z,98582.16
2022-09-17T15:46:56.886Z,98584.44
2022-09-17T15:50:21.661Z,98580.66
2022-09-17T15:53:35.329Z,98586.47
2022-09-17T15:56:47.365Z,98581.56
2022-09-17T16:00:08.171Z,98590.75
2022-09-17T16:04:05.401Z,98593.50
2022-09-17T16:07:28.723Z,98604.44
2022-09-17T16:10:44.274Z,98616.09
2022-09-17T16:13:56.878Z,98605.31
2022-09-17T16:17:22.291Z,98610.47
2022-09-17T16:20:31.876Z,98615.22
2022-09-17T16:23:44.696Z,98609.34
2022-09-17T16:26:54.220Z,98611.91
2022-09-17T16:30:11.941Z,98608.34
2022-09-17T16:33:22.869Z,98608.81
2022-09-17T16:36:32.913Z,98610.22
2022-09-17T16:39:42.796Z,98611.97
2022-09-17T16:42:52.468Z,98605.28
2022-09-17T16:46:03.213Z,98609.91
2022-09-17T16:49:15.320Z,98603.41
2022-09-17T16:52:27.173Z,98605.28
2022-09-17T16:55:37.526Z,98601.47
2022-09-17T16:58:47.466Z,98607.09
2022-09-17T17:01:57.200Z,98615.66
2022-09-17T17:05:11.635Z,98614.38
2022-09-17T17:08:22.724Z,98609.84
2022-09-17T17:11:32.389Z,98613.72
2022-09-17T17:14:42.043Z,98618.47
2022-09-17T17:17:52.321Z,98625.28
2022-09-17T17:21:09.750Z,98626.97
2022-09-17T17:24:28.965Z,98631.03
2022-09-17T17:27:46.199Z,98637.22
2022-09-17T17:30:59.898Z,98635.66
2022-09-17T17:34:14.599Z,98644.78
2022-09-17T17:37:27.100Z,98650.06
2022-09-17T17:40:38.914Z,98661.03
2022-09-17T17:43:48.575Z,98655.28
2022-09-17T17:46:58.509Z,98657.28
2022-09-17T17:50:11.558Z,98665.13
2022-09-17T17:53:24.748Z,98668.41
2022-09-17T17:56:34.331Z,98673.56
2022-09-17T17:59:43.788Z,98675.34
2022-09-17T18:02:53.615Z,98685.97
2022-09-17T18:06:06.303Z,98689.53
2022-09-17T18:09:17.631Z,98696.69
2022-09-17T18:12:32.993Z,98695.13
2022-09-17T18:15:51.682Z,98705.84
2022-09-17T18:19:02.977Z,98715.66
2022-09-17T18:22:15.140Z,98728.41
2022-09-17T18:25:28.123Z,98751.13
2022-09-17T18:28:40.561Z,98754.16
2022-09-17T18:31:50.335Z,98763.13
2022-09-17T18:35:00.051Z,98758.53
2022-09-17T18:38:09.557Z,98756.97
2022-09-17T18:41:21.991Z,98752.63
2022-09-17T18:44:31.580Z,98757.53
2022-09-17T18:47:44.072Z,98765.66
2022-09-17T18:51:05.969Z,98772.06
2022-09-17T18:54:18.316Z,98782.09
2022-09-17T18:57:37.214Z,98789.03
2022-09-17T19:00:49.627Z,98779.78
2022-09-17T19:04:00.422Z,98762.31
2022-09-17T19:07:10.063Z,98770.25
2022-09-17T19:10:19.817Z,98770.47
2022-09-17T19:13:36.604Z,98774.53
2022-09-17T19:16:56.346Z,98775.97
2022-09-17T19:20:07.793Z,98771.72
2022-09-17T19:23:21.744Z,98772.28
2022-09-17T19:26:31.377Z,98782.78
2022-09-17T19:29:42.382Z,98784.00
2022-09-17T19:32:52.703Z,98777.88
2022-09-17T19:36:04.047Z,98791.06
2022-09-17T19:39:13.888Z,98779.75
2022-09-17T19:42:23.497Z,98782.66
2022-09-17T19:45:39.134Z,98791.25
2022-09-17T19:48:50.609Z,98788.03
2022-09-17T19:52:00.239Z,98791.06
2022-09-17T19:55:13.041Z,98791.25
2022-09-17T19:58:26.113Z,98786.47
2022-09-17T20:01:36.978Z,98788.41
2022-09-17T20:04:47.139Z,98786.91
2022-09-17T20:07:56.916Z,98801.56
2022-09-17T20:11:08.116Z,98801.13
2022-09-17T20:14:17.964Z,98801.78
2022-09-17T20:17:29.519Z,98793.75
2022-09-17T20:20:39.309Z,98800.22
2022-09-17T20:23:49.714Z,98803.00
